sensor_id;sensor_type;location;lat;lon;timestamp;pressure;altitude;pressure_sealevel;temperature;humidity
75998;BME280;64685;48.762;44.822;2023-07-29T00:03:22;100032.28;;;22.94;63.30
75998;BME280;64685;48.762;44.822;2023-07-29T00:08:26;100029.16;;;22.81;61.84
75998;BME280;64685;48.762;44.822;2023-07-29T00:13:28;100021.00;;;22.83;62.01
75998;BME280;64685;48.762;44.822;2023-07-29T00:18:31;100040.25;;;22.69;61.90
75998;BME280;64685;48.762;44.822;2023-07-29T00:23:34;100061.88;;;22.63;62.23
75998;BME280;64685;48.762;44.822;2023-07-29T00:28:37;100079.81;;;22.60;62.16
75998;BME280;64685;48.762;44.822;2023-07-29T00:33:39;100114.09;;;22.39;62.56
75998;BME280;64685;48.762;44.822;2023-07-29T00:38:42;100121.53;;;22.22;62.93
75998;BME280;64685;48.762;44.822;2023-07-29T00:43:45;100122.34;;;22.16;62.86
75998;BME280;64685;48.762;44.822;2023-07-29T00:48:47;100127.25;;;22.12;62.90
75998;BME280;64685;48.762;44.822;2023-07-29T00:53:51;100137.47;;;22.02;63.37
75998;BME280;64685;48.762;44.822;2023-07-29T00:58:54;100130.56;;;22.00;63.59
75998;BME280;64685;48.762;44.822;2023-07-29T01:04:01;100129.38;;;21.97;63.85
75998;BME280;64685;48.762;44.822;2023-07-29T01:09:07;100118.41;;;21.96;63.77
75998;BME280;64685;48.762;44.822;2023-07-29T01:24:53;100109.03;;;21.99;63.33
75998;BME280;64685;48.762;44.822;2023-07-29T01:35:04;100156.25;;;21.75;63.57
75998;BME280;64685;48.762;44.822;2023-07-29T01:40:11;100168.88;;;21.71;63.44
75998;BME280;64685;48.762;44.822;2023-07-29T01:45:15;100168.03;;;21.67;63.36
75998;BME280;64685;48.762;44.822;2023-07-29T01:50:19;100157.53;;;21.67;63.32
75998;BME280;64685;48.762;44.822;2023-07-29T01:55:22;100153.81;;;21.67;63.31
75998;BME280;64685;48.762;44.822;2023-07-29T02:00:24;100137.16;;;21.65;63.14
75998;BME280;64685;48.762;44.822;2023-07-29T02:05:27;100120.56;;;21.67;62.98
75998;BME280;64685;48.762;44.822;2023-07-29T02:10:30;100140.84;;;21.62;63.07
75998;BME280;64685;48.762;44.822;2023-07-29T02:15:33;100127.88;;;21.61;63.17
75998;BME280;64685;48.762;44.822;2023-07-29T02:20:38;100136.00;;;21.63;63.11
75998;BME280;64685;48.762;44.822;2023-07-29T02:25:41;100130.72;;;21.68;62.69
75998;BME280;64685;48.762;44.822;2023-07-29T02:30:43;100146.16;;;21.60;62.70
75998;BME280;64685;48.762;44.822;2023-07-29T02:35:48;100137.22;;;21.69;62.61
75998;BME280;64685;48.762;44.822;2023-07-29T02:40:51;100138.00;;;21.62;62.86
75998;BME280;64685;48.762;44.822;2023-07-29T02:45:53;100139.63;;;21.67;62.71
75998;BME280;64685;48.762;44.822;2023-07-29T02:50:56;100151.44;;;21.55;62.96
75998;BME280;64685;48.762;44.822;2023-07-29T02:55:59;100144.50;;;21.59;62.75
75998;BME280;64685;48.762;44.822;2023-07-29T03:01:05;100135.59;;;21.71;62.38
75998;BME280;64685;48.762;44.822;2023-07-29T03:06:13;100137.19;;;21.72;62.08
75998;BME280;64685;48.762;44.822;2023-07-29T03:11:16;100137.91;;;21.94;61.82
75998;BME280;64685;48.762;44.822;2023-07-29T03:16:19;100120.03;;;21.93;61.78
75998;BME280;64685;48.762;44.822;2023-07-29T03:21:28;100098.03;;;22.04;61.13
75998;BME280;64685;48.762;44.822;2023-07-29T03:26:31;100113.00;;;22.15;61.49
75998;BME280;64685;48.762;44.822;2023-07-29T03:31:34;100131.50;;;22.55;60.12
75998;BME280;64685;48.762;44.822;2023-07-29T03:36:37;100135.44;;;22.68;59.88
75998;BME280;64685;48.762;44.822;2023-07-29T03:41:40;100136.31;;;22.65;60.09
75998;BME280;64685;48.762;44.822;2023-07-29T03:46:42;100129.34;;;23.54;58.30
75998;BME280;64685;48.762;44.822;2023-07-29T03:51:45;100113.19;;;24.67;55.11
75998;BME280;64685;48.762;44.822;2023-07-29T03:56:48;100103.91;;;25.32;52.87
75998;BME280;64685;48.762;44.822;2023-07-29T04:01:51;100104.00;;;25.48;52.21
75998;BME280;64685;48.762;44.822;2023-07-29T04:06:54;100095.13;;;26.21;51.08
75998;BME280;64685;48.762;44.822;2023-07-29T04:11:56;100102.75;;;26.27;50.29
75998;BME280;64685;48.762;44.822;2023-07-29T04:16:59;100100.22;;;26.29;50.05
75998;BME280;64685;48.762;44.822;2023-07-29T04:22:02;100101.97;;;26.07;50.21
75998;BME280;64685;48.762;44.822;2023-07-29T04:27:05;100098.50;;;25.77;51.29
75998;BME280;64685;48.762;44.822;2023-07-29T04:32:07;100111.81;;;26.06;50.83
75998;BME280;64685;48.762;44.822;2023-07-29T04:37:10;100097.00;;;25.92;50.78
75998;BME280;64685;48.762;44.822;2023-07-29T04:42:13;100114.84;;;25.37;51.94
75998;BME280;64685;48.762;44.822;2023-07-29T04:47:16;100101.94;;;25.49;51.62
75998;BME280;64685;48.762;44.822;2023-07-29T04:52:18;100091.75;;;26.42;50.49
75998;BME280;64685;48.762;44.822;2023-07-29T04:57:21;100113.47;;;26.91;48.88
75998;BME280;64685;48.762;44.822;2023-07-29T05:02:24;100086.50;;;27.04;48.63
75998;BME280;64685;48.762;44.822;2023-07-29T05:07:26;100092.97;;;27.53;47.32
75998;BME280;64685;48.762;44.822;2023-07-29T05:12:29;100076.34;;;28.92;44.98
75998;BME280;64685;48.762;44.822;2023-07-29T05:17:32;100077.94;;;28.18;45.73
75998;BME280;64685;48.762;44.822;2023-07-29T05:22:35;100083.91;;;26.62;48.79
75998;BME280;64685;48.762;44.822;2023-07-29T05:27:37;100078.19;;;26.26;51.01
75998;BME280;64685;48.762;44.822;2023-07-29T05:32:40;100082.25;;;25.90;51.27
75998;BME280;64685;48.762;44.822;2023-07-29T05:37:43;100072.53;;;27.06;48.86
75998;BME280;64685;48.762;44.822;2023-07-29T05:42:46;100069.28;;;27.36;49.01
75998;BME280;64685;48.762;44.822;2023-07-29T05:47:50;100073.91;;;26.70;49.18
75998;BME280;64685;48.762;44.822;2023-07-29T05:52:53;100075.50;;;26.19;50.68
75998;BME280;64685;48.762;44.822;2023-07-29T05:57:56;100072.50;;;26.42;50.64
75998;BME280;64685;48.762;44.822;2023-07-29T06:03:00;100056.38;;;26.32;50.78
75998;BME280;64685;48.762;44.822;2023-07-29T06:08:03;100061.44;;;26.09;51.26
75998;BME280;64685;48.762;44.822;2023-07-29T06:13:06;100059.25;;;25.77;51.80
75998;BME280;64685;48.762;44.822;2023-07-29T06:18:09;100050.94;;;26.86;49.94
75998;BME280;64685;48.762;44.822;2023-07-29T06:23:12;100055.00;;;27.49;48.38
75998;BME280;64685;48.762;44.822;2023-07-29T06:28:15;100053.53;;;27.28;47.98
75998;BME280;64685;48.762;44.822;2023-07-29T06:33:18;100065.25;;;26.38;50.62
75998;BME280;64685;48.762;44.822;2023-07-29T06:38:21;100063.16;;;25.67;52.54
75998;BME280;64685;48.762;44.822;2023-07-29T06:43:24;100075.69;;;25.11;53.89
75998;BME280;64685;48.762;44.822;2023-07-29T06:48:26;100068.53;;;25.00;55.04
75998;BME280;64685;48.762;44.822;2023-07-29T06:53:29;100066.22;;;25.37;54.65
75998;BME280;64685;48.762;44.822;2023-07-29T06:58:35;100062.13;;;25.38;54.76
75998;BME280;64685;48.762;44.822;2023-07-29T07:03:38;100048.84;;;25.67;54.34
75998;BME280;64685;48.762;44.822;2023-07-29T07:08:41;100058.25;;;25.48;54.64
75998;BME280;64685;48.762;44.822;2023-07-29T07:13:44;100049.72;;;27.47;51.06
75998;BME280;64685;48.762;44.822;2023-07-29T07:18:46;100046.22;;;28.97;46.29
75998;BME280;64685;48.762;44.822;2023-07-29T07:23:50;100012.19;;;30.64;43.49
75998;BME280;64685;48.762;44.822;2023-07-29T07:28:52;100000.88;;;30.87;41.95
75998;BME280;64685;48.762;44.822;2023-07-29T07:33:55;100016.25;;;30.36;41.25
75998;BME280;64685;48.762;44.822;2023-07-29T07:38:58;100015.44;;;30.35;41.04
75998;BME280;64685;48.762;44.822;2023-07-29T07:44:00;99994.47;;;30.35;41.74
75998;BME280;64685;48.762;44.822;2023-07-29T07:49:03;99981.25;;;30.55;41.58
75998;BME280;64685;48.762;44.822;2023-07-29T07:54:06;99986.38;;;29.04;42.80
75998;BME280;64685;48.762;44.822;2023-07-29T07:59:08;99970.88;;;29.45;42.51
75998;BME280;64685;48.762;44.822;2023-07-29T08:04:11;99989.16;;;29.51;41.90
75998;BME280;64685;48.762;44.822;2023-07-29T08:09:14;99991.28;;;28.32;44.11
75998;BME280;64685;48.762;44.822;2023-07-29T08:14:17;99987.34;;;26.91;47.79
75998;BME280;64685;48.762;44.822;2023-07-29T08:19:19;99997.41;;;26.51;49.83
75998;BME280;64685;48.762;44.822;2023-07-29T08:24:23;100020.47;;;24.72;59.79
75998;BME280;64685;48.762;44.822;2023-07-29T08:29:26;100062.44;;;23.95;64.65
75998;BME280;64685;48.762;44.822;2023-07-29T08:34:29;100068.53;;;24.50;66.23
75998;BME280;64685;48.762;44.822;2023-07-29T08:39:32;100041.06;;;26.23;62.29
75998;BME280;64685;48.762;44.822;2023-07-29T08:44:44;100026.22;;;26.44;60.05
75998;BME280;64685;48.762;44.822;2023-07-29T08:49:50;100019.19;;;27.53;57.94
75998;BME280;64685;48.762;44.822;2023-07-29T08:54:53;100005.13;;;28.96;52.84
75998;BME280;64685;48.762;44.822;2023-07-29T08:59:56;99986.25;;;30.24;50.57
75998;BME280;64685;48.762;44.822;2023-07-29T09:05:01;99981.69;;;32.25;46.25
75998;BME280;64685;48.762;44.822;2023-07-29T09:10:05;99975.75;;;32.19;45.81
75998;BME280;64685;48.762;44.822;2023-07-29T09:15:08;99977.50;;;32.26;44.48
75998;BME280;64685;48.762;44.822;2023-07-29T09:20:11;99979.88;;;33.16;41.20
75998;BME280;64685;48.762;44.822;2023-07-29T09:25:14;99959.75;;;32.00;41.58
75998;BME280;64685;48.762;44.822;2023-07-29T09:30:18;99968.81;;;31.66;42.13
75998;BME280;64685;48.762;44.822;2023-07-29T09:35:23;99942.63;;;32.62;39.50
75998;BME280;64685;48.762;44.822;2023-07-29T09:40:26;99947.66;;;30.70;41.07
75998;BME280;64685;48.762;44.822;2023-07-29T09:45:29;99962.19;;;29.14;45.85
75998;BME280;64685;48.762;44.822;2023-07-29T09:50:31;99968.75;;;28.31;49.68
75998;BME280;64685;48.762;44.822;2023-07-29T09:55:34;99956.28;;;29.82;46.32
75998;BME280;64685;48.762;44.822;2023-07-29T10:00:37;99957.75;;;29.01;47.18
75998;BME280;64685;48.762;44.822;2023-07-29T10:05:41;99956.81;;;28.20;48.40
75998;BME280;64685;48.762;44.822;2023-07-29T10:10:44;99950.53;;;30.13;47.10
75998;BME280;64685;48.762;44.822;2023-07-29T10:15:47;99940.50;;;29.01;47.71
75998;BME280;64685;48.762;44.822;2023-07-29T10:20:51;99956.13;;;29.86;46.13
75998;BME280;64685;48.762;44.822;2023-07-29T10:26:02;99945.97;;;30.03;43.61
75998;BME280;64685;48.762;44.822;2023-07-29T10:31:08;99963.56;;;29.53;44.49
75998;BME280;64685;48.762;44.822;2023-07-29T10:36:11;99969.94;;;28.46;47.60
75998;BME280;64685;48.762;44.822;2023-07-29T10:41:14;99978.69;;;27.64;50.92
75998;BME280;64685;48.762;44.822;2023-07-29T10:46:21;99988.41;;;28.20;49.91
75998;BME280;64685;48.762;44.822;2023-07-29T10:51:34;99998.00;;;29.56;44.94
75998;BME280;64685;48.762;44.822;2023-07-29T10:56:41;99985.34;;;28.39;48.05
75998;BME280;64685;48.762;44.822;2023-07-29T11:02:00;99979.00;;;27.82;49.77
75998;BME280;64685;48.762;44.822;2023-07-29T11:17:55;100012.56;;;27.56;50.91
75998;BME280;64685;48.762;44.822;2023-07-29T11:23:01;100001.41;;;27.58;50.77
75998;BME280;64685;48.762;44.822;2023-07-29T11:28:03;99997.31;;;27.31;51.55
75998;BME280;64685;48.762;44.822;2023-07-29T11:33:08;100005.44;;;27.20;52.04
75998;BME280;64685;48.762;44.822;2023-07-29T11:38:17;99989.94;;;27.17;51.98
75998;BME280;64685;48.762;44.822;2023-07-29T11:43:20;99991.34;;;27.25;52.01
75998;BME280;64685;48.762;44.822;2023-07-29T11:48:32;99987.25;;;27.39;52.10
75998;BME280;64685;48.762;44.822;2023-07-29T11:53:36;100003.47;;;27.17;52.58
75998;BME280;64685;48.762;44.822;2023-07-29T11:58:39;100011.16;;;27.20;52.57
75998;BME280;64685;48.762;44.822;2023-07-29T12:03:42;100012.06;;;27.45;52.98
75998;BME280;64685;48.762;44.822;2023-07-29T12:08:46;100009.06;;;26.92;53.86
75998;BME280;64685;48.762;44.822;2023-07-29T12:13:48;100009.09;;;27.20;53.99
75998;BME280;64685;48.762;44.822;2023-07-29T12:18:51;100023.03;;;27.34;51.84
75998;BME280;64685;48.762;44.822;2023-07-29T12:23:54;100019.84;;;27.45;52.02
75998;BME280;64685;48.762;44.822;2023-07-29T12:29:11;100018.53;;;27.62;52.03
75998;BME280;64685;48.762;44.822;2023-07-29T12:34:21;100020.09;;;27.50;53.09
75998;BME280;64685;48.762;44.822;2023-07-29T12:39:25;100028.97;;;27.27;54.27
75998;BME280;64685;48.762;44.822;2023-07-29T12:44:32;100029.47;;;27.38;53.53
75998;BME280;64685;48.762;44.822;2023-07-29T12:49:35;100023.53;;;27.45;52.98
75998;BME280;64685;48.762;44.822;2023-07-29T12:54:38;100016.81;;;27.23;50.57
75998;BME280;64685;48.762;44.822;2023-07-29T12:59:42;100011.81;;;27.40;50.96
75998;BME280;64685;48.762;44.822;2023-07-29T13:04:45;100018.50;;;27.21;51.54
75998;BME280;64685;48.762;44.822;2023-07-29T13:09:48;100008.25;;;26.75;53.66
75998;BME280;64685;48.762;44.822;2023-07-29T13:14:50;100017.19;;;26.45;55.11
75998;BME280;64685;48.762;44.822;2023-07-29T13:19:53;100030.78;;;26.41;56.15
75998;BME280;64685;48.762;44.822;2023-07-29T13:24:56;100033.16;;;26.11;56.38
75998;BME280;64685;48.762;44.822;2023-07-29T13:29:58;100033.38;;;26.20;56.46
75998;BME280;64685;48.762;44.822;2023-07-29T13:35:01;100039.44;;;26.22;55.88
75998;BME280;64685;48.762;44.822;2023-07-29T13:40:05;100050.88;;;26.06;57.68
75998;BME280;64685;48.762;44.822;2023-07-29T13:45:08;100051.34;;;25.65;60.20
75998;BME280;64685;48.762;44.822;2023-07-29T13:50:11;100052.13;;;25.46;61.32
75998;BME280;64685;48.762;44.822;2023-07-29T13:55:14;100062.31;;;25.67;60.90
75998;BME280;64685;48.762;44.822;2023-07-29T14:00:17;100054.34;;;25.58;57.83
75998;BME280;64685;48.762;44.822;2023-07-29T14:05:19;100060.44;;;25.80;55.54
75998;BME280;64685;48.762;44.822;2023-07-29T14:10:22;100057.69;;;25.73;54.70
75998;BME280;64685;48.762;44.822;2023-07-29T14:15:25;100054.91;;;25.69;54.64
75998;BME280;64685;48.762;44.822;2023-07-29T14:20:28;100075.69;;;25.73;54.51
75998;BME280;64685;48.762;44.822;2023-07-29T14:25:30;100080.91;;;25.98;54.10
75998;BME280;64685;48.762;44.822;2023-07-29T14:30:33;100071.66;;;25.90;53.55
75998;BME280;64685;48.762;44.822;2023-07-29T14:35:36;100077.59;;;25.80;54.20
75998;BME280;64685;48.762;44.822;2023-07-29T14:40:39;100083.44;;;25.73;54.43
75998;BME280;64685;48.762;44.822;2023-07-29T14:45:42;100094.16;;;25.49;54.62
75998;BME280;64685;48.762;44.822;2023-07-29T14:50:44;100114.19;;;25.49;54.66
75998;BME280;64685;48.762;44.822;2023-07-29T14:55:47;100121.22;;;25.45;54.90
75998;BME280;64685;48.762;44.822;2023-07-29T15:00:50;100125.63;;;25.49;53.99
75998;BME280;64685;48.762;44.822;2023-07-29T15:05:52;100128.72;;;25.58;53.59
75998;BME280;64685;48.762;44.822;2023-07-29T15:10:55;100126.50;;;25.46;53.39
75998;BME280;64685;48.762;44.822;2023-07-29T15:15:58;100130.81;;;25.35;53.71
75998;BME280;64685;48.762;44.822;2023-07-29T15:21:01;100130.91;;;25.05;54.35
75998;BME280;64685;48.762;44.822;2023-07-29T15:26:04;100135.75;;;24.85;54.99
75998;BME280;64685;48.762;44.822;2023-07-29T15:31:07;100137.16;;;24.73;55.47
75998;BME280;64685;48.762;44.822;2023-07-29T15:36:10;100157.41;;;24.56;56.30
75998;BME280;64685;48.762;44.822;2023-07-29T15:41:13;100147.72;;;24.50;55.58
75998;BME280;64685;48.762;44.822;2023-07-29T15:46:16;100162.41;;;24.48;55.74
75998;BME280;64685;48.762;44.822;2023-07-29T15:51:18;100162.72;;;24.54;55.64
75998;BME280;64685;48.762;44.822;2023-07-29T15:56:21;100170.59;;;24.46;55.52
75998;BME280;64685;48.762;44.822;2023-07-29T16:01:24;100184.53;;;24.41;55.90
75998;BME280;64685;48.762;44.822;2023-07-29T16:06:26;100187.03;;;24.39;56.30
75998;BME280;64685;48.762;44.822;2023-07-29T16:11:29;100197.06;;;24.20;56.80
75998;BME280;64685;48.762;44.822;2023-07-29T16:16:32;100196.84;;;24.04;57.26
75998;BME280;64685;48.762;44.822;2023-07-29T16:21:35;100215.38;;;23.86;57.46
75998;BME280;64685;48.762;44.822;2023-07-29T16:26:38;100220.31;;;23.82;58.05
75998;BME280;64685;48.762;44.822;2023-07-29T16:31:41;100225.81;;;23.62;57.83
75998;BME280;64685;48.762;44.822;2023-07-29T16:36:44;100230.34;;;23.56;57.82
75998;BME280;64685;48.762;44.822;2023-07-29T16:41:46;100240.63;;;23.47;58.13
75998;BME280;64685;48.762;44.822;2023-07-29T16:46:52;100250.47;;;23.42;58.11
75998;BME280;64685;48.762;44.822;2023-07-29T16:51:55;100242.00;;;23.32;58.13
75998;BME280;64685;48.762;44.822;2023-07-29T16:56:57;100265.25;;;23.27;58.26
75998;BME280;64685;48.762;44.822;2023-07-29T17:02:00;100267.31;;;23.23;58.32
75998;BME280;64685;48.762;44.822;2023-07-29T17:07:03;100279.94;;;23.22;57.96
75998;BME280;64685;48.762;44.822;2023-07-29T17:12:06;100269.34;;;23.22;58.05
75998;BME280;64685;48.762;44.822;2023-07-29T17:17:09;100279.47;;;23.30;57.60
75998;BME280;64685;48.762;44.822;2023-07-29T17:22:11;100287.53;;;23.39;56.88
75998;BME280;64685;48.762;44.822;2023-07-29T17:27:14;100282.63;;;23.39;55.89
75998;BME280;64685;48.762;44.822;2023-07-29T17:32:16;100288.72;;;23.45;55.64
75998;BME280;64685;48.762;44.822;2023-07-29T17:37:19;100290.31;;;23.49;55.43
75998;BME280;64685;48.762;44.822;2023-07-29T17:42:22;100300.06;;;23.52;55.46
75998;BME280;64685;48.762;44.822;2023-07-29T17:47:25;100301.66;;;23.53;55.15
75998;BME280;64685;48.762;44.822;2023-07-29T17:52:27;100293.59;;;23.44;55.60
75998;BME280;64685;48.762;44.822;2023-07-29T17:57:30;100289.16;;;23.40;55.88
75998;BME280;64685;48.762;44.822;2023-07-29T18:02:33;100297.81;;;23.26;56.14
75998;BME280;64685;48.762;44.822;2023-07-29T18:07:35;100302.41;;;23.06;56.17
75998;BME280;64685;48.762;44.822;2023-07-29T18:12:38;100301.31;;;22.82;56.64
75998;BME280;64685;48.762;44.822;2023-07-29T18:17:41;100310.31;;;22.77;56.78
75998;BME280;64685;48.762;44.822;2023-07-29T18:22:44;100325.78;;;22.73;57.22
75998;BME280;64685;48.762;44.822;2023-07-29T18:27:50;100328.22;;;22.78;57.38
75998;BME280;64685;48.762;44.822;2023-07-29T18:32:53;100337.22;;;22.69;58.00
75998;BME280;64685;48.762;44.822;2023-07-29T18:37:56;100328.63;;;22.76;57.92
75998;BME280;64685;48.762;44.822;2023-07-29T18:43:02;100328.22;;;22.78;58.20
75998;BME280;64685;48.762;44.822;2023-07-29T18:48:05;100335.16;;;22.73;58.51
75998;BME280;64685;48.762;44.822;2023-07-29T18:53:07;100327.38;;;22.77;58.38
75998;BME280;64685;48.762;44.822;2023-07-29T18:58:10;100333.53;;;22.76;58.01
75998;BME280;64685;48.762;44.822;2023-07-29T19:03:13;100336.44;;;22.58;57.93
75998;BME280;64685;48.762;44.822;2023-07-29T19:08:16;100337.69;;;22.47;57.98
75998;BME280;64685;48.762;44.822;2023-07-29T19:13:19;100340.97;;;22.31;58.63
75998;BME280;64685;48.762;44.822;2023-07-29T19:18:24;100349.56;;;22.17;59.04
75998;BME280;64685;48.762;44.822;2023-07-29T19:23:27;100346.72;;;22.03;59.29
75998;BME280;64685;48.762;44.822;2023-07-29T19:28:30;100351.59;;;21.92;59.71
75998;BME280;64685;48.762;44.822;2023-07-29T19:33:33;100355.28;;;21.79;59.84
75998;BME280;64685;48.762;44.822;2023-07-29T19:38:36;100357.31;;;21.78;59.59
75998;BME280;64685;48.762;44.822;2023-07-29T19:43:38;100362.19;;;21.78;59.38
75998;BME280;64685;48.762;44.822;2023-07-29T19:48:41;100367.06;;;21.74;59.31
75998;BME280;64685;48.762;44.822;2023-07-29T19:53:44;100366.25;;;21.70;59.85
75998;BME280;64685;48.762;44.822;2023-07-29T19:58:47;100368.66;;;21.61;59.27
75998;BME280;64685;48.762;44.822;2023-07-29T20:03:51;100376.78;;;21.59;59.13
75998;BME280;64685;48.762;44.822;2023-07-29T20:08:55;100379.59;;;21.48;59.20
75998;BME280;64685;48.762;44.822;2023-07-29T20:13:58;100386.94;;;21.46;58.95
75998;BME280;64685;48.762;44.822;2023-07-29T20:19:00;100390.97;;;21.45;58.33
75998;BME280;64685;48.762;44.822;2023-07-29T20:24:03;100378.81;;;21.41;57.99
75998;BME280;64685;48.762;44.822;2023-07-29T20:29:07;100376.34;;;21.39;57.32
75998;BME280;64685;48.762;44.822;2023-07-29T20:34:09;100380.81;;;21.40;57.07
75998;BME280;64685;48.762;44.822;2023-07-29T20:39:12;100375.97;;;21.44;56.41
75998;BME280;64685;48.762;44.822;2023-07-29T20:44:15;100368.63;;;21.40;55.86
75998;BME280;64685;48.762;44.822;2023-07-29T20:49:17;100371.91;;;21.35;55.33
75998;BME280;64685;48.762;44.822;2023-07-29T20:54:20;100365.38;;;21.34;54.71
75998;BME280;64685;48.762;44.822;2023-07-29T20:59:23;100365.38;;;21.31;54.40
75998;BME280;64685;48.762;44.822;2023-07-29T21:04:25;100375.53;;;21.32;53.91
75998;BME280;64685;48.762;44.822;2023-07-29T21:09:28;100383.22;;;21.31;53.51
75998;BME280;64685;48.762;44.822;2023-07-29T21:14:31;100384.84;;;21.29;53.42
75998;BME280;64685;48.762;44.822;2023-07-29T21:19:34;100384.06;;;21.28;53.62
75998;BME280;64685;48.762;44.822;2023-07-29T21:24:36;100388.50;;;21.22;53.71
75998;BME280;64685;48.762;44.822;2023-07-29T21:29:39;100392.97;;;21.20;53.86
75998;BME280;64685;48.762;44.822;2023-07-29T21:34:42;100392.13;;;21.16;54.04
75998;BME280;64685;48.762;44.822;2023-07-29T21:39:45;100405.53;;;21.15;54.31
75998;BME280;64685;48.762;44.822;2023-07-29T21:44:48;100400.25;;;21.07;54.57
75998;BME280;64685;48.762;44.822;2023-07-29T21:49:50;100408.31;;;21.05;54.72
75998;BME280;64685;48.762;44.822;2023-07-29T21:54:54;100420.50;;;20.98;54.97
75998;BME280;64685;48.762;44.822;2023-07-29T21:59:56;100405.84;;;20.93;55.52
75998;BME280;64685;48.762;44.822;2023-07-29T22:12:07;100422.00;;;20.85;55.60
75998;BME280;64685;48.762;44.822;2023-07-29T22:17:10;100422.00;;;20.82;55.96
75998;BME280;64685;48.762;44.822;2023-07-29T22:22:13;100424.00;;;20.74;55.96
75998;BME280;64685;48.762;44.822;2023-07-29T22:27:16;100414.63;;;20.67;56.47
75998;BME280;64685;48.762;44.822;2023-07-29T22:32:18;100417.06;;;20.65;56.46
75998;BME280;64685;48.762;44.822;2023-07-29T22:37:21;100428.78;;;20.63;57.02
75998;BME280;64685;48.762;44.822;2023-07-29T22:42:24;100420.66;;;20.58;57.64
75998;BME280;64685;48.762;44.822;2023-07-29T22:47:26;100424.72;;;20.57;57.82
75998;BME280;64685;48.762;44.822;2023-07-29T22:52:29;100422.31;;;20.59;57.79
75998;BME280;64685;48.762;44.822;2023-07-29T22:57:32;100427.50;;;20.50;57.96
75998;BME280;64685;48.762;44.822;2023-07-29T23:02:34;100438.03;;;20.50;58.42
75998;BME280;64685;48.762;44.822;2023-07-29T23:07:37;100430.34;;;20.47;58.69
75998;BME280;64685;48.762;44.822;2023-07-29T23:12:41;100429.94;;;20.45;59.06
75998;BME280;64685;48.762;44.822;2023-07-29T23:17:43;100438.00;;;20.43;59.00
75998;BME280;64685;48.762;44.822;2023-07-29T23:22:46;100420.97;;;20.39;58.75
75998;BME280;64685;48.762;44.822;2023-07-29T23:27:49;100437.56;;;20.37;58.63
75998;BME280;64685;48.762;44.822;2023-07-29T23:32:51;100446.88;;;20.34;58.68
75998;BME280;64685;48.762;44.822;2023-07-29T23:37:54;100444.84;;;20.35;58.41
75998;BME280;64685;48.762;44.822;2023-07-29T23:42:57;100437.13;;;20.35;57.74
75998;BME280;64685;48.762;44.822;2023-07-29T23:47:59;100441.19;;;20.34;57.91
75998;BME280;64685;48.762;44.822;2023-07-29T23:53:02;100427.41;;;20.33;57.38
75998;BME280;64685;48.762;44.822;2023-07-29T23:58:05;100430.31;;;20.40;56.06
